Time;durP1;ratioP1;P1;durP2;ratioP2;P2;SDS_P1;SDS_P2;PMS_P1;PMS_P2;Temp;Humidity;BMP_temperature;BMP_pressure;BME280_temperature;BME280_humidity;BME280_pressure;Samples;Min_cycle;Max_cycle;Signal;HPM_P1;HPM_P2
2023/07/02 00:00:06;;;;;;;6.03;2.58;;;;;;;16.22;100.00;93499.28;5044029;28;20053;-60
2023/07/02 00:02:34;;;;;;;5.35;2.80;;;;;;;16.27;100.00;93496.66;5052204;28;20052;-60
2023/07/02 00:05:01;;;;;;;3.57;2.37;;;;;;;16.25;100.00;93495.59;5069680;28;20105;-60
2023/07/02 00:07:27;;;;;;;7.30;2.80;;;;;;;16.15;100.00;93490.06;5069449;28;20070;-60
2023/07/02 00:09:54;;;;;;;4.65;2.90;;;;;;;16.04;100.00;93491.78;5069695;28;20089;-60
2023/07/02 00:12:21;;;;;;;3.92;2.65;;;;;;;15.99;100.00;93487.59;5057371;28;20101;-60
2023/07/02 00:14:48;;;;;;;6.72;2.83;;;;;;;16.00;100.00;93488.34;5040590;28;20142;-61
2023/07/02 00:17:14;;;;;;;4.00;2.90;;;;;;;16.00;100.00;93483.63;5043602;28;20075;-60
2023/07/02 00:19:41;;;;;;;4.53;2.88;;;;;;;15.91;100.00;93476.06;5064768;28;20032;-60
2023/07/02 00:22:09;;;;;;;4.85;2.75;;;;;;;15.84;100.00;93486.69;5075739;28;20093;-60
2023/07/02 00:24:36;;;;;;;5.00;2.97;;;;;;;15.88;100.00;93487.31;5069185;28;20091;-60
2023/07/02 00:27:04;;;;;;;5.90;2.75;;;;;;;15.94;100.00;93497.28;5056398;28;20045;-60
2023/07/02 00:29:30;;;;;;;4.70;3.10;;;;;;;15.92;100.00;93496.97;5070679;28;20036;-63
2023/07/02 00:31:57;;;;;;;7.80;5.10;;;;;;;15.97;100.00;93490.06;5080302;28;20208;-60
2023/07/02 00:34:24;;;;;;;4.63;3.20;;;;;;;16.00;100.00;93508.53;5068753;28;20079;-60
2023/07/02 00:36:52;;;;;;;4.28;2.85;;;;;;;15.97;100.00;93499.13;5051642;28;20044;-60
2023/07/02 00:39:18;;;;;;;4.70;2.70;;;;;;;15.97;100.00;93501.88;5055772;28;20052;-60
2023/07/02 00:41:46;;;;;;;4.10;2.60;;;;;;;15.87;100.00;93508.66;5069214;28;20508;-60
2023/07/02 00:44:13;;;;;;;4.20;2.60;;;;;;;15.87;100.00;93511.41;5056132;28;20460;-60
2023/07/02 00:46:40;;;;;;;4.50;2.70;;;;;;;16.00;100.00;93511.28;5068216;28;20048;-60
2023/07/02 00:49:08;;;;;;;43.83;31.70;;;;;;;16.07;100.00;93519.28;5060246;28;20111;-61
2023/07/02 00:51:34;;;;;;;10.65;7.10;;;;;;;16.13;100.00;93513.91;5064841;28;20066;-62
2023/07/02 00:54:01;;;;;;;4.50;2.77;;;;;;;15.87;100.00;93511.41;5069341;28;20233;-60
2023/07/02 00:56:28;;;;;;;4.30;2.85;;;;;;;15.25;100.00;93508.78;5068556;28;20040;-59
2023/07/02 00:58:58;;;;;;;6.53;2.80;;;;;;;15.42;100.00;93509.31;5069221;28;20753;-60
2023/07/02 01:01:27;;;;;;;4.85;2.90;;;;;;;15.58;100.00;93511.81;5068913;28;20404;-60
2023/07/02 01:04:03;;;;;;;4.43;2.60;;;;;;;15.72;100.00;93516.78;5051122;28;20200;-59
2023/07/02 01:06:32;;;;;;;4.50;2.90;;;;;;;15.72;100.00;93518.75;5068474;28;20055;-60
2023/07/02 01:09:01;;;;;;;4.43;2.83;;;;;;;15.77;100.00;93504.34;5069330;28;20043;-60
2023/07/02 01:11:31;;;;;;;4.00;2.70;;;;;;;15.73;100.00;93507.25;5056291;28;20381;-60
2023/07/02 01:14:02;;;;;;;4.07;2.97;;;;;;;15.82;100.00;93502.97;5049283;28;20053;-60
2023/07/02 01:16:32;;;;;;;3.90;2.60;;;;;;;15.79;100.00;93515.72;5062414;28;20101;-60
2023/07/02 01:19:04;;;;;;;4.50;2.80;;;;;;;15.76;100.00;93505.59;5055566;28;20067;-60
2023/07/02 01:21:32;;;;;;;6.80;4.60;;;;;;;15.84;100.00;93509.59;5079203;28;20052;-59
2023/07/02 01:24:03;;;;;;;6.05;3.60;;;;;;;15.89;100.00;93510.97;5068923;28;20052;-60
2023/07/02 01:26:33;;;;;;;4.70;3.20;;;;;;;15.95;100.00;93512.66;5064107;28;20049;-63
2023/07/02 01:29:16;;;;;;;4.43;3.00;;;;;;;15.96;100.00;93507.91;5060145;28;20089;-61
2023/07/02 01:31:43;;;;;;;4.57;2.73;;;;;;;16.04;100.00;93516.69;5063455;28;20059;-60
2023/07/02 01:34:11;;;;;;;4.25;2.65;;;;;;;16.01;100.00;93518.34;5058735;28;20071;-60
2023/07/02 01:36:38;;;;;;;5.45;2.78;;;;;;;15.87;100.00;93513.41;5067838;28;20041;-61
2023/07/02 01:39:05;;;;;;;4.20;2.80;;;;;;;15.82;100.00;93520.34;5060166;28;20048;-61
2023/07/02 01:41:41;;;;;;;4.43;2.92;;;;;;;15.57;100.00;93522.13;5045961;28;20063;-60
2023/07/02 01:44:08;;;;;;;5.63;3.17;;;;;;;15.66;100.00;93524.13;5068626;28;20061;-60
2023/07/02 01:46:35;;;;;;;5.35;3.00;;;;;;;15.68;100.00;93520.91;5067856;28;20488;-60
2023/07/02 01:49:01;;;;;;;6.60;2.70;;;;;;;15.64;100.00;93525.81;5055353;28;20063;-60
2023/07/02 01:51:28;;;;;;;5.43;2.83;;;;;;;15.72;100.00;93516.00;5050190;28;20049;-61
2023/07/02 01:53:55;;;;;;;4.55;2.97;;;;;;;15.72;100.00;93510.47;5068422;28;20423;-60
2023/07/02 01:56:22;;;;;;;4.17;2.80;;;;;;;15.69;100.00;93516.91;5071883;28;20048;-61
2023/07/02 01:58:48;;;;;;;4.00;2.88;;;;;;;15.77;100.00;93523.69;5057973;28;20648;-60
2023/07/02 02:01:15;;;;;;;4.72;3.10;;;;;;;15.81;100.00;93520.78;5054940;28;20493;-60
2023/07/02 02:03:42;;;;;;;5.35;3.30;;;;;;;15.82;100.00;93514.81;5071571;28;20040;-60
2023/07/02 02:06:09;;;;;;;6.07;3.17;;;;;;;15.84;100.00;93522.66;5072611;28;20059;-60
2023/07/02 02:08:35;;;;;;;4.83;3.00;;;;;;;15.86;100.00;93511.91;5068408;28;20047;-61
2023/07/02 02:11:02;;;;;;;4.82;2.72;;;;;;;15.85;100.00;93513.13;5053695;28;20094;-61
2023/07/02 02:13:29;;;;;;;4.07;2.80;;;;;;;15.80;100.00;93508.97;5052648;28;20059;-60
2023/07/02 02:15:55;;;;;;;4.68;2.97;;;;;;;15.72;100.00;93513.22;5070002;28;20071;-60
2023/07/02 02:18:22;;;;;;;5.13;2.80;;;;;;;15.70;100.00;93519.22;5072169;28;20105;-61
2023/07/02 02:20:49;;;;;;;6.07;3.20;;;;;;;15.63;100.00;93522.25;5055600;28;20473;-60
2023/07/02 02:23:16;;;;;;;5.65;3.13;;;;;;;15.61;100.00;93516.41;5062644;28;20120;-60
2023/07/02 02:25:43;;;;;;;4.60;3.20;;;;;;;15.57;100.00;93513.03;5050106;28;20163;-60
2023/07/02 02:28:10;;;;;;;5.70;3.08;;;;;;;15.54;100.00;93511.19;5061168;28;20040;-60
2023/07/02 02:30:37;;;;;;;5.20;3.30;;;;;;;15.56;100.00;93519.81;5061909;28;20059;-63
2023/07/02 02:33:03;;;;;;;5.90;3.70;;;;;;;15.52;100.00;93516.41;5053945;28;20043;-60
2023/07/02 02:35:30;;;;;;;5.43;3.28;;;;;;;15.44;100.00;93527.00;5053282;28;20041;-60
2023/07/02 02:37:57;;;;;;;4.90;3.58;;;;;;;15.46;100.00;93523.78;5054166;28;20041;-60
2023/07/02 02:40:23;;;;;;;5.07;3.35;;;;;;;15.51;100.00;93520.41;5071322;28;20047;-61
2023/07/02 02:42:50;;;;;;;4.85;3.22;;;;;;;15.41;100.00;93519.59;5050247;28;20053;-60
2023/07/02 02:45:17;;;;;;;5.03;3.07;;;;;;;15.50;100.00;93527.16;5065405;28;20040;-60
2023/07/02 02:47:46;;;;;;;4.60;3.10;;;;;;;15.57;100.00;93522.13;5071121;28;20051;-62
2023/07/02 02:50:13;;;;;;;4.85;3.25;;;;;;;15.39;100.00;93519.28;5071360;28;20059;-60
2023/07/02 02:52:40;;;;;;;6.40;3.40;;;;;;;15.35;100.00;93524.97;5057859;28;20045;-60
2023/07/02 02:55:10;;;;;;;4.40;3.20;;;;;;;15.43;100.00;93519.16;5071283;28;20055;-60
2023/07/02 02:57:37;;;;;;;5.30;3.60;;;;;;;15.20;100.00;93526.00;5071210;28;20036;-60
2023/07/02 03:00:04;;;;;;;4.95;3.90;;;;;;;15.18;100.00;93534.72;5071329;28;20489;-60
2023/07/02 03:02:31;;;;;;;5.25;3.58;;;;;;;15.33;100.00;93529.41;5070898;28;20056;-60
2023/07/02 03:05:02;;;;;;;5.45;3.60;;;;;;;15.42;100.00;93540.50;5071047;28;20163;-60
2023/07/02 03:07:29;;;;;;;6.35;3.63;;;;;;;15.44;100.00;93529.75;5052834;28;20519;-59
2023/07/02 03:09:56;;;;;;;6.13;3.50;;;;;;;15.45;100.00;93534.03;5050044;28;20051;-60
2023/07/02 03:12:25;;;;;;;6.18;3.67;;;;;;;15.40;100.00;93533.91;5052035;28;20550;-60
2023/07/02 03:14:55;;;;;;;5.50;3.67;;;;;;;15.22;100.00;93538.13;5059749;28;20850;-60
2023/07/02 03:17:22;;;;;;;6.30;3.75;;;;;;;15.19;100.00;93544.56;5071230;28;20047;-58
2023/07/02 03:19:49;;;;;;;6.18;3.65;;;;;;;15.10;100.00;93542.53;5071231;28;20376;-59
2023/07/02 03:22:16;;;;;;;5.77;3.60;;;;;;;15.14;100.00;93545.16;5075337;28;20056;-59
2023/07/02 03:24:43;;;;;;;5.93;4.10;;;;;;;15.13;100.00;93544.41;5052664;28;20048;-60
2023/07/02 03:27:10;;;;;;;5.50;4.00;;;;;;;15.08;100.00;93546.97;5070605;28;20051;-59
2023/07/02 03:29:38;;;;;;;7.05;4.53;;;;;;;14.93;100.00;93547.53;5073663;28;20036;-60
2023/07/02 03:32:05;;;;;;;7.00;5.13;;;;;;;14.86;100.00;93539.50;5055997;28;20382;-59
2023/07/02 03:34:32;;;;;;;6.57;4.50;;;;;;;14.92;100.00;93537.69;5052698;28;20036;-59
2023/07/02 03:36:58;;;;;;;7.40;4.40;;;;;;;14.97;100.00;93547.41;5052867;28;20047;-59
2023/07/02 03:39:25;;;;;;;8.25;5.20;;;;;;;14.91;100.00;93546.41;5070075;28;20056;-60
2023/07/02 03:41:53;;;;;;;6.35;4.55;;;;;;;15.11;100.00;93551.59;5070590;28;20493;-61
2023/07/02 03:44:19;;;;;;;6.82;4.72;;;;;;;14.93;100.00;93542.00;5070808;28;20033;-59
2023/07/02 03:46:46;;;;;;;7.40;4.60;;;;;;;15.09;100.00;93551.28;5069948;28;20345;-58
2023/07/02 03:49:13;;;;;;;7.32;4.53;;;;;;;15.03;100.00;93550.31;5070148;28;20044;-58
2023/07/02 03:51:40;;;;;;;6.45;4.68;;;;;;;15.13;100.00;93552.69;5069748;28;20049;-59
2023/07/02 03:54:07;;;;;;;7.25;4.70;;;;;;;15.03;100.00;93558.59;5070376;28;20370;-59
2023/07/02 03:56:33;;;;;;;7.75;5.32;;;;;;;15.17;100.00;93558.84;5069537;28;20067;-60
2023/07/02 03:59:00;;;;;;;7.47;4.93;;;;;;;15.15;100.00;93561.31;5059930;28;20126;-59
2023/07/02 04:01:27;;;;;;;7.40;4.93;;;;;;;15.30;100.00;93569.03;5067207;28;20397;-59
2023/07/02 04:03:55;;;;;;;7.13;4.65;;;;;;;15.01;100.00;93567.38;5070149;28;20051;-59
2023/07/02 04:06:22;;;;;;;6.85;4.90;;;;;;;14.97;100.00;93566.75;5056881;28;20044;-59
2023/07/02 04:08:49;;;;;;;7.85;4.63;;;;;;;14.87;100.00;93576.97;5051578;28;20644;-59
2023/07/02 04:11:16;;;;;;;8.27;4.70;;;;;;;15.01;100.00;93575.66;5060653;28;20079;-60
2023/07/02 04:13:43;;;;;;;6.35;4.57;;;;;;;14.91;100.00;93582.34;5049963;28;20045;-61
2023/07/02 04:16:09;;;;;;;6.82;4.32;;;;;;;14.81;100.00;93577.97;5070011;28;20051;-59
2023/07/02 04:18:36;;;;;;;7.43;5.03;;;;;;;14.87;100.00;93578.94;5068335;28;20032;-59
2023/07/02 04:21:03;;;;;;;6.93;4.78;;;;;;;15.01;100.00;93580.41;5070150;28;20075;-58
2023/07/02 04:23:30;;;;;;;6.63;4.77;;;;;;;15.17;100.00;93586.50;5061791;28;20063;-58
2023/07/02 04:25:57;;;;;;;6.88;4.50;;;;;;;15.05;100.00;93587.34;5069589;28;20045;-59
2023/07/02 04:28:43;;;;;;;7.35;5.05;;;;;;;15.04;100.00;93591.31;5069129;28;20520;-59
2023/07/02 04:31:10;;;;;;;8.35;5.13;;;;;;;15.02;100.00;93585.47;5060941;28;20105;-60
2023/07/02 04:33:37;;;;;;;8.75;5.00;;;;;;;15.22;100.00;93593.41;5069334;28;20044;-58
2023/07/02 04:36:04;;;;;;;6.90;4.90;;;;;;;15.30;100.00;93586.38;5056105;28;20044;-59
2023/07/02 04:38:30;;;;;;;7.35;4.55;;;;;;;15.47;100.00;93589.66;5068843;28;20070;-58
2023/07/02 04:41:04;;;;;;;8.38;4.93;;;;;;;15.48;100.00;93587.69;5064138;28;20386;-58
2023/07/02 04:43:33;;;;;;;7.60;4.57;;;;;;;15.62;100.00;93592.66;5061774;28;20489;-59
2023/07/02 04:46:00;;;;;;;7.05;4.65;;;;;;;15.75;100.00;93587.03;5069165;28;20041;-60
2023/07/02 04:48:28;;;;;;;7.50;5.10;;;;;;;15.65;100.00;93582.66;5068996;28;20047;-58
2023/07/02 04:50:55;;;;;;;7.15;5.00;;;;;;;15.29;100.00;93592.34;5069343;28;20041;-59
2023/07/02 04:53:21;;;;;;;6.90;4.47;;;;;;;15.68;100.00;93579.75;5055391;28;20052;-59
2023/07/02 04:55:48;;;;;;;8.55;5.00;;;;;;;15.80;100.00;93574.59;5068324;28;20050;-59
2023/07/02 04:58:15;;;;;;;8.77;5.50;;;;;;;15.03;100.00;93578.75;5056100;28;20040;-60
2023/07/02 05:00:42;;;;;;;8.17;4.93;;;;;;;15.50;100.00;93588.00;5068834;28;20047;-58
2023/07/02 05:03:09;;;;;;;8.15;5.30;;;;;;;15.73;100.00;93584.72;5051447;28;20384;-58
2023/07/02 05:05:36;;;;;;;8.27;5.20;;;;;;;15.81;100.00;93584.44;5050855;28;20088;-58
2023/07/02 05:08:04;;;;;;;8.82;4.88;;;;;;;15.72;100.00;93591.47;5069009;28;20037;-59
2023/07/02 05:10:32;;;;;;;9.65;5.60;;;;;;;15.64;100.00;93592.22;5068875;28;20036;-61
2023/07/02 05:12:59;;;;;;;7.60;5.30;;;;;;;15.80;100.00;93599.50;5068668;28;20059;-60
2023/07/02 05:15:26;;;;;;;10.23;5.22;;;;;;;15.78;100.00;93595.19;5068601;28;20045;-59
2023/07/02 05:17:53;;;;;;;10.02;5.70;;;;;;;15.93;100.00;93600.91;5051121;28;20045;-59
2023/07/02 05:20:19;;;;;;;10.48;5.57;;;;;;;16.01;100.00;93603.38;5072994;28;20032;-58
2023/07/02 05:22:46;;;;;;;9.70;5.55;;;;;;;16.08;100.00;93597.56;5050382;28;20064;-58
2023/07/02 05:25:13;;;;;;;9.43;5.50;;;;;;;16.16;100.00;93602.34;5068895;28;20121;-59
2023/07/02 05:27:40;;;;;;;10.63;5.60;;;;;;;16.32;100.00;93597.75;5049933;28;20048;-59
2023/07/02 05:30:07;;;;;;;9.00;5.40;;;;;;;16.40;100.00;93601.75;5054451;28;20050;-59
2023/07/02 05:32:34;;;;;;;9.07;5.40;;;;;;;16.46;100.00;93596.34;5069461;28;20070;-59
2023/07/02 05:35:01;;;;;;;11.13;5.63;;;;;;;16.60;100.00;93587.44;5068932;28;20097;-59
2023/07/02 05:37:28;;;;;;;10.60;5.77;;;;;;;16.33;100.00;93599.28;5054829;28;20046;-59
2023/07/02 05:39:54;;;;;;;9.95;6.00;;;;;;;15.96;100.00;93594.47;5068775;28;20051;-60
2023/07/02 05:42:21;;;;;;;9.27;5.78;;;;;;;16.04;100.00;93605.25;5052939;28;20078;-59
2023/07/02 05:44:48;;;;;;;10.85;6.07;;;;;;;16.20;100.00;93606.94;5038016;28;20051;-58
2023/07/02 05:47:15;;;;;;;9.45;5.80;;;;;;;16.31;100.00;93607.28;5066044;28;20032;-58
2023/07/02 05:49:42;;;;;;;10.73;5.70;;;;;;;16.56;100.00;93606.22;5058866;28;20037;-58
2023/07/02 05:52:09;;;;;;;9.18;5.80;;;;;;;16.76;100.00;93595.44;5046918;28;20043;-59
2023/07/02 05:54:40;;;;;;;10.05;5.55;;;;;;;16.87;100.00;93602.53;5060751;28;20049;-60
2023/07/02 05:57:07;;;;;;;10.73;6.45;;;;;;;16.84;100.00;93603.44;5062910;28;20051;-59
2023/07/02 05:59:34;;;;;;;10.35;6.25;;;;;;;16.78;100.00;93611.56;5068006;28;20048;-60
2023/07/02 06:02:01;;;;;;;11.50;6.10;;;;;;;16.50;100.00;93614.38;5055060;28;20074;-61
2023/07/02 06:04:27;;;;;;;11.52;5.88;;;;;;;16.72;100.00;93616.19;5067948;28;20038;-59
2023/07/02 06:06:55;;;;;;;11.35;6.28;;;;;;;16.89;100.00;93614.69;5050876;28;20052;-59
2023/07/02 06:09:21;;;;;;;10.65;6.25;;;;;;;16.63;100.00;93618.97;5054962;28;20409;-59
2023/07/02 06:11:48;;;;;;;11.00;6.55;;;;;;;16.77;100.00;93623.91;5067493;28;20062;-59
2023/07/02 06:14:15;;;;;;;13.77;6.57;;;;;;;16.82;100.00;93620.56;5068162;28;20036;-60
2023/07/02 06:16:42;;;;;;;11.07;6.40;;;;;;;17.17;100.00;93615.41;5050130;28;20047;-58
2023/07/02 06:19:09;;;;;;;11.50;6.55;;;;;;;17.79;100.00;93616.13;5065019;28;20049;-60
2023/07/02 06:21:36;;;;;;;12.20;6.43;;;;;;;18.33;100.00;93619.06;5069646;28;20421;-58
2023/07/02 06:24:03;;;;;;;13.88;6.97;;;;;;;18.63;100.00;93624.72;5050072;28;20044;-59
2023/07/02 06:26:32;;;;;;;13.53;7.13;;;;;;;17.98;100.00;93635.50;5067355;28;20051;-59
2023/07/02 06:28:59;;;;;;;11.23;6.85;;;;;;;19.98;100.00;93618.78;5068193;28;20043;-60
2023/07/02 06:31:26;;;;;;;13.02;6.57;;;;;;;20.17;100.00;93618.53;5076637;28;20102;-61
2023/07/02 06:33:53;;;;;;;11.50;7.20;;;;;;;20.02;100.00;93624.13;5054566;28;20072;-59
2023/07/02 06:36:20;;;;;;;13.00;6.97;;;;;;;21.05;100.00;93636.13;5068338;28;20052;-60
2023/07/02 06:38:46;;;;;;;15.03;8.53;;;;;;;20.33;100.00;93634.69;5067745;28;20049;-59
2023/07/02 06:41:14;;;;;;;14.13;8.52;;;;;;;20.09;100.00;93643.22;5055144;28;20082;-59
2023/07/02 06:43:43;;;;;;;13.00;8.43;;;;;;;20.00;100.00;93635.78;5063071;28;20041;-59
2023/07/02 06:46:11;;;;;;;16.95;9.00;;;;;;;20.03;100.00;93634.78;5051842;28;20045;-59
2023/07/02 06:48:38;;;;;;;16.02;9.55;;;;;;;22.53;99.07;93631.97;5064461;28;20412;-60
2023/07/02 06:51:06;;;;;;;19.17;9.93;;;;;;;23.35;83.03;93641.72;5071438;28;20050;-60
2023/07/02 06:53:34;;;;;;;18.42;11.15;;;;;;;21.62;92.88;93637.44;5071039;28;20041;-60
2023/07/02 06:56:00;;;;;;;16.90;10.95;;;;;;;24.44;74.03;93642.00;5071113;28;20049;-60
2023/07/02 06:58:27;;;;;;;16.92;10.90;;;;;;;26.38;64.06;93638.38;5070612;28;20044;-60
2023/07/02 07:00:54;;;;;;;18.25;11.50;;;;;;;28.24;54.62;93624.69;5036938;28;20040;-63
2023/07/02 07:03:21;;;;;;;17.03;12.10;;;;;;;28.24;51.60;93626.75;5071426;28;20051;-60
2023/07/02 07:05:48;;;;;;;17.52;12.65;;;;;;;25.22;57.90;93636.66;5070771;28;20053;-60
2023/07/02 07:08:15;;;;;;;20.77;13.40;;;;;;;22.16;74.70;93643.19;5071112;28;20404;-59
2023/07/02 07:10:42;;;;;;;19.08;13.02;;;;;;;20.83;86.66;93653.34;5070082;28;20044;-60
2023/07/02 07:13:09;;;;;;;21.42;13.82;;;;;;;20.44;90.79;93654.34;5070820;28;20047;-59
2023/07/02 07:15:38;;;;;;;19.90;12.80;;;;;;;20.94;89.24;93659.06;5070346;28;20097;-59
2023/07/02 07:18:04;;;;;;;22.70;13.93;;;;;;;20.74;89.97;93655.03;5051208;28;20037;-59
2023/07/02 07:20:31;;;;;;;21.15;13.52;;;;;;;21.42;86.78;93657.78;5077419;28;20442;-60
2023/07/02 07:22:58;;;;;;;22.38;13.55;;;;;;;22.01;82.06;93662.13;5072144;28;20056;-59
2023/07/02 07:25:25;;;;;;;25.20;14.80;;;;;;;22.57;76.83;93667.34;5058999;28;20451;-59
2023/07/02 07:27:52;;;;;;;24.40;14.97;;;;;;;21.68;78.84;93660.59;5068574;28;20163;-61
2023/07/02 07:30:22;;;;;;;24.67;14.73;;;;;;;21.25;83.15;93665.97;5054546;28;20041;-60
2023/07/02 07:32:50;;;;;;;22.92;15.00;;;;;;;21.19;84.75;93676.31;5064719;28;20617;-59
2023/07/02 07:35:18;;;;;;;27.05;15.20;;;;;;;21.65;79.27;93672.75;5070689;28;20067;-62
2023/07/02 07:37:45;;;;;;;23.42;14.90;;;;;;;22.39;75.81;93668.50;5056757;28;20056;-62
2023/07/02 07:40:12;;;;;;;23.13;14.57;;;;;;;22.90;72.77;93666.75;5070540;28;20048;-60
2023/07/02 07:42:39;;;;;;;23.83;15.00;;;;;;;23.07;69.31;93669.63;5070092;28;20048;-61
2023/07/02 07:45:06;;;;;;;25.95;15.05;;;;;;;25.03;61.89;93667.34;5051537;28;20040;-59
2023/07/02 07:47:33;;;;;;;23.73;15.15;;;;;;;26.48;56.41;93667.72;5055303;28;20071;-60
2023/07/02 07:50:00;;;;;;;21.95;15.45;;;;;;;27.61;50.74;93668.50;5052591;28;20075;-60
2023/07/02 07:52:27;;;;;;;21.00;15.17;;;;;;;27.32;49.34;93659.63;5069334;28;20417;-62
2023/07/02 07:54:53;;;;;;;22.90;14.93;;;;;;;26.85;50.93;93659.94;5070407;28;20040;-60
2023/07/02 07:57:20;;;;;;;22.85;15.43;;;;;;;26.38;53.60;93662.94;5070234;28;20413;-61
2023/07/02 07:59:47;;;;;;;24.60;16.33;;;;;;;26.54;49.75;93664.84;5051768;28;20470;-60
2023/07/02 08:02:14;;;;;;;22.98;16.08;;;;;;;27.46;48.89;93663.31;5069763;28;20048;-60
2023/07/02 08:04:40;;;;;;;23.10;16.57;;;;;;;27.14;47.59;93658.28;5063399;28;20106;-61
2023/07/02 08:07:09;;;;;;;23.50;15.93;;;;;;;26.89;49.15;93666.78;5063042;28;20049;-61
2023/07/02 08:09:35;;;;;;;24.33;16.92;;;;;;;25.87;50.50;93666.91;5048485;28;20117;-61
2023/07/02 08:12:03;;;;;;;24.15;16.63;;;;;;;25.02;51.57;93669.41;5049854;28;20089;-60
2023/07/02 08:14:29;;;;;;;27.33;17.25;;;;;;;23.76;57.13;93668.50;5067982;28;20458;-59
2023/07/02 08:16:56;;;;;;;24.53;17.67;;;;;;;26.57;50.87;93675.03;5069853;28;20055;-60
2023/07/02 08:19:23;;;;;;;23.70;16.92;;;;;;;27.91;45.51;93678.84;5067491;28;20115;-63
2023/07/02 08:21:54;;;;;;;26.45;18.15;;;;;;;28.05;43.30;93669.13;5059925;28;20045;-60
2023/07/02 08:24:20;;;;;;;26.38;18.27;;;;;;;24.94;50.39;93667.66;5056149;28;20056;-60
2023/07/02 08:26:49;;;;;;;25.98;18.42;;;;;;;25.14;50.65;93689.78;5068791;28;20053;-60
2023/07/02 08:29:16;;;;;;;28.53;18.20;;;;;;;23.85;52.65;93682.31;5055921;28;20167;-59
2023/07/02 08:31:43;;;;;;;26.65;19.08;;;;;;;26.34;50.42;93680.13;5068819;28;20115;-60
2023/07/02 08:34:10;;;;;;;26.27;18.10;;;;;;;27.04;45.92;93676.84;5051578;28;20101;-61
2023/07/02 08:36:36;;;;;;;25.15;18.23;;;;;;;26.98;45.80;93670.53;5036697;28;20229;-60
2023/07/02 08:39:04;;;;;;;26.30;18.05;;;;;;;25.69;48.80;93673.16;5069332;28;20047;-60
2023/07/02 08:41:42;;;;;;;27.80;18.30;;;;;;;25.33;49.87;93675.16;5068757;28;20474;-59
2023/07/02 08:44:09;;;;;;;27.05;17.83;;;;;;;24.57;51.53;93675.16;5059079;28;20046;-60
2023/07/02 08:46:36;;;;;;;27.67;18.55;;;;;;;23.78;53.57;93677.97;5050210;28;20353;-61
2023/07/02 08:49:02;;;;;;;28.10;18.45;;;;;;;24.16;53.76;93669.31;5069183;28;20393;-59
2023/07/02 08:51:29;;;;;;;26.88;18.33;;;;;;;25.02;52.07;93674.25;5068551;28;20041;-62
2023/07/02 08:53:56;;;;;;;27.37;17.57;;;;;;;23.77;54.53;93681.25;5069306;28;20501;-59
2023/07/02 08:56:23;;;;;;;29.67;18.95;;;;;;;23.04;58.51;93676.22;5068640;28;20045;-59
2023/07/02 08:58:49;;;;;;;29.42;19.02;;;;;;;23.73;56.83;93679.47;5067719;28;20671;-61
2023/07/02 09:01:16;;;;;;;30.00;18.77;;;;;;;23.96;55.99;93671.09;5031579;28;20063;-60
2023/07/02 09:03:43;;;;;;;27.00;18.63;;;;;;;22.48;60.18;93682.31;5066478;28;20053;-59
2023/07/02 09:06:11;;;;;;;27.67;18.40;;;;;;;23.12;59.46;93669.66;5068335;28;20053;-61
2023/07/02 09:08:39;;;;;;;28.35;18.20;;;;;;;23.17;59.68;93678.59;5068451;28;20044;-61
2023/07/02 09:11:10;;;;;;;27.23;17.80;;;;;;;24.10;57.41;93667.25;5069118;28;20051;-59
2023/07/02 09:13:48;;;;;;;27.25;18.77;;;;;;;23.32;58.39;93665.91;5063884;28;20515;-60
2023/07/02 09:16:36;;;;;;;29.38;18.58;;;;;;;24.46;55.93;93659.06;5061154;28;20044;-60
2023/07/02 09:19:08;;;;;;;26.23;17.50;;;;;;;24.48;53.97;93667.72;5063969;28;20703;-60
2023/07/02 09:21:38;;;;;;;26.10;18.42;;;;;;;24.14;55.37;93667.00;5055720;28;20085;-60
2023/07/02 09:24:19;;;;;;;27.50;18.73;;;;;;;24.01;56.04;93666.78;5066247;28;20041;-61
2023/07/02 09:26:49;;;;;;;26.80;18.48;;;;;;;24.24;55.57;93659.09;5059600;28;20040;-62
2023/07/02 09:29:26;;;;;;;28.75;18.38;;;;;;;24.88;54.79;93662.06;5068900;28;20049;-62
2023/07/02 09:31:53;;;;;;;26.37;19.10;;;;;;;25.74;51.40;93655.50;5064452;28;20379;-60
2023/07/02 09:34:38;;;;;;;25.65;17.88;;;;;;;26.48;48.71;93658.47;5037615;28;20040;-60
2023/07/02 09:37:05;;;;;;;25.70;17.88;;;;;;;25.11;53.46;93666.31;5068431;28;20041;-59
2023/07/02 09:39:34;;;;;;;22.92;16.58;;;;;;;27.64;46.10;93650.50;5068214;28;20037;-60
2023/07/02 09:42:05;;;;;;;23.20;17.63;;;;;;;27.69;46.86;93658.88;5068632;28;20097;-60
2023/07/02 09:44:33;;;;;;;25.00;17.70;;;;;;;27.62;45.15;93659.47;5049050;28;20063;-63
2023/07/02 09:47:08;;;;;;;23.42;17.60;;;;;;;27.92;43.44;93643.72;5035641;28;20397;-60
2023/07/02 09:49:53;;;;;;;23.42;17.42;;;;;;;25.30;47.52;93655.25;5067798;28;20155;-60
2023/07/02 09:52:20;;;;;;;25.20;17.90;;;;;;;27.21;47.02;93656.94;5041231;28;20040;-60
2023/07/02 09:54:47;;;;;;;22.77;16.95;;;;;;;28.98;42.61;93649.56;5053795;28;20418;-60
2023/07/02 09:57:14;;;;;;;23.53;16.93;;;;;;;26.90;44.11;93648.63;5067835;28;20052;-60
2023/07/02 09:59:41;;;;;;;22.42;17.10;;;;;;;27.33;45.10;93657.59;5066340;28;20048;-60
2023/07/02 10:02:10;;;;;;;21.70;16.00;;;;;;;30.04;38.78;93642.16;5067829;28;20051;-60
2023/07/02 10:04:41;;;;;;;20.85;15.85;;;;;;;32.11;37.57;93645.53;5048917;28;20048;-60
2023/07/02 10:07:08;;;;;;;21.63;16.33;;;;;;;29.85;37.29;93640.28;5053554;28;20049;-60
2023/07/02 10:09:45;;;;;;;22.50;16.13;;;;;;;29.54;39.22;93650.50;5049577;28;20064;-61
2023/07/02 10:12:22;;;;;;;20.25;14.88;;;;;;;29.40;38.06;93654.63;5055052;28;20052;-60
2023/07/02 10:14:53;;;;;;;21.27;15.43;;;;;;;26.89;41.79;93652.72;5066750;28;20473;-60
2023/07/02 10:17:28;;;;;;;21.00;15.30;;;;;;;27.33;41.33;93658.34;5051244;28;20511;-60
2023/07/02 10:19:58;;;;;;;21.30;14.70;;;;;;;27.40;42.63;93643.66;5073037;28;21650;-60
2023/07/02 10:22:25;;;;;;;19.57;14.63;;;;;;;28.12;40.35;93645.94;5073980;28;20105;-61
2023/07/02 10:24:52;;;;;;;19.13;14.10;;;;;;;28.78;38.78;93650.97;5071628;28;20390;-60
2023/07/02 10:27:20;;;;;;;18.60;13.55;;;;;;;29.09;37.90;93643.66;5070890;28;20520;-60
2023/07/02 10:29:50;;;;;;;18.13;13.68;;;;;;;27.77;40.42;93650.56;5075966;28;20469;-60
2023/07/02 10:32:31;;;;;;;18.00;13.57;;;;;;;27.65;40.53;93649.22;5062576;28;20057;-60
2023/07/02 10:34:59;;;;;;;17.07;13.27;;;;;;;26.92;43.22;93650.13;5052466;28;20551;-62
2023/07/02 10:37:26;;;;;;;16.23;12.27;;;;;;;28.03;39.50;93647.13;5068048;28;20040;-61
2023/07/02 10:39:54;;;;;;;18.20;12.15;;;;;;;27.10;41.37;93652.19;5060690;28;20044;-60
2023/07/02 10:42:21;;;;;;;17.92;12.35;;;;;;;26.65;42.06;93661.16;5071068;28;20040;-60
2023/07/02 10:44:52;;;;;;;17.13;12.52;;;;;;;26.95;41.89;93651.91;5055282;28;20383;-60
2023/07/02 10:47:19;;;;;;;17.90;12.43;;;;;;;26.58;42.77;93654.09;5053786;28;20059;-62
2023/07/02 10:49:46;;;;;;;18.17;12.13;;;;;;;25.96;45.93;93653.81;5070776;28;20049;-60
2023/07/02 10:52:13;;;;;;;19.38;12.80;;;;;;;25.15;46.10;93663.22;5050095;28;20441;-60
2023/07/02 10:54:40;;;;;;;17.50;11.85;;;;;;;25.52;45.69;93667.66;5050913;28;20053;-61
2023/07/02 10:57:08;;;;;;;17.10;12.25;;;;;;;26.02;44.92;93654.56;5070515;28;20032;-61
2023/07/02 10:59:35;;;;;;;17.20;11.27;;;;;;;25.25;46.24;93658.09;5070822;28;20067;-63
2023/07/02 11:02:03;;;;;;;16.83;11.30;;;;;;;24.87;46.89;93652.09;5053374;28;20041;-61
2023/07/02 11:04:31;;;;;;;16.65;11.10;;;;;;;24.70;49.14;93652.16;5049815;28;20044;-63
2023/07/02 11:06:58;;;;;;;16.13;11.00;;;;;;;25.80;47.90;93659.03;5069993;28;20048;-61
2023/07/02 11:09:26;;;;;;;15.80;11.00;;;;;;;26.51;45.66;93675.09;5070741;28;20143;-61
2023/07/02 11:11:55;;;;;;;15.20;10.80;;;;;;;26.52;44.62;93656.13;5071163;28;20082;-61
2023/07/02 11:14:28;;;;;;;15.70;10.75;;;;;;;25.99;44.43;93655.59;5071320;28;20044;-61
2023/07/02 11:16:56;;;;;;;15.27;9.82;;;;;;;25.87;44.81;93655.66;5070093;28;20507;-61
2023/07/02 11:19:23;;;;;;;14.82;10.77;;;;;;;27.09;43.41;93654.25;5070925;28;20052;-61
2023/07/02 11:21:57;;;;;;;15.45;10.05;;;;;;;25.86;46.09;93661.81;5076382;28;21498;-61
2023/07/02 11:24:35;;;;;;;14.83;10.33;;;;;;;26.43;46.01;93662.13;5065984;28;20098;-61